sensor_id;sensor_type;location;lat;lon;timestamp;pressure;altitude;pressure_sealevel;temperature;humidity
56604;BME280;42486;47.478;19.036;2022-12-18T00:00:12;101627.63;;;-2.66;100.00
56604;BME280;42486;47.478;19.036;2022-12-18T00:03:16;101629.31;;;-2.68;100.00
56604;BME280;42486;47.478;19.036;2022-12-18T00:06:29;101640.41;;;-2.66;100.00
56604;BME280;42486;47.478;19.036;2022-12-18T00:09:36;101646.38;;;-2.68;100.00
56604;BME280;42486;47.478;19.036;2022-12-18T00:12:43;101653.19;;;-2.66;100.00
56604;BME280;42486;47.478;19.036;2022-12-18T00:15:49;101665.09;;;-2.66;100.00
56604;BME280;42486;47.478;19.036;2022-12-18T00:18:55;101671.09;;;-2.67;100.00
56604;BME280;42486;47.478;19.036;2022-12-18T00:21:59;101667.69;;;-2.71;100.00
56604;BME280;42486;47.478;19.036;2022-12-18T00:25:04;101681.31;;;-2.76;100.00
56604;BME280;42486;47.478;19.036;2022-12-18T00:28:08;101687.28;;;-2.76;100.00
56604;BME280;42486;47.478;19.036;2022-12-18T00:31:18;101696.66;;;-2.73;100.00
56604;BME280;42486;47.478;19.036;2022-12-18T00:34:23;101695.78;;;-2.77;100.00
56604;BME280;42486;47.478;19.036;2022-12-18T00:37:27;101700.88;;;-2.77;100.00
56604;BME280;42486;47.478;19.036;2022-12-18T00:40:31;101700.03;;;-2.83;100.00
56604;BME280;42486;47.478;19.036;2022-12-18T00:43:37;101699.19;;;-2.81;100.00
56604;BME280;42486;47.478;19.036;2022-12-18T00:46:43;101701.72;;;-2.82;100.00
56604;BME280;42486;47.478;19.036;2022-12-18T00:49:48;101706.00;;;-2.83;100.00
56604;BME280;42486;47.478;19.036;2022-12-18T00:52:52;101706.00;;;-2.86;100.00
56604;BME280;42486;47.478;19.036;2022-12-18T00:55:57;101708.53;;;-2.86;100.00
56604;BME280;42486;47.478;19.036;2022-12-18T00:59:03;101713.69;;;-2.81;100.00
56604;BME280;42486;47.478;19.036;2022-12-18T01:02:09;101721.34;;;-2.81;100.00
56604;BME280;42486;47.478;19.036;2022-12-18T01:05:15;101739.25;;;-2.78;100.00
56604;BME280;42486;47.478;19.036;2022-12-18T01:08:20;101729.81;;;-2.90;100.00
56604;BME280;42486;47.478;19.036;2022-12-18T01:11:23;101745.16;;;-2.96;100.00
56604;BME280;42486;47.478;19.036;2022-12-18T01:14:26;101740.88;;;-3.00;100.00
56604;BME280;42486;47.478;19.036;2022-12-18T01:17:32;101738.28;;;-3.03;100.00
56604;BME280;42486;47.478;19.036;2022-12-18T01:20:37;101746.81;;;-3.04;100.00
56604;BME280;42486;47.478;19.036;2022-12-18T01:23:41;101751.94;;;-3.03;100.00
56604;BME280;42486;47.478;19.036;2022-12-18T01:26:45;101753.66;;;-2.96;100.00
56604;BME280;42486;47.478;19.036;2022-12-18T01:29:52;101752.81;;;-2.98;100.00
56604;BME280;42486;47.478;19.036;2022-12-18T01:32:55;101756.19;;;-3.03;100.00
56604;BME280;42486;47.478;19.036;2022-12-18T01:36:01;101757.06;;;-3.03;100.00
56604;BME280;42486;47.478;19.036;2022-12-18T01:39:07;101763.03;;;-3.02;100.00
56604;BME280;42486;47.478;19.036;2022-12-18T01:42:14;101763.91;;;-2.93;100.00
56604;BME280;42486;47.478;19.036;2022-12-18T01:45:28;101764.75;;;-2.97;100.00
56604;BME280;42486;47.478;19.036;2022-12-18T01:48:33;101774.06;;;-3.03;100.00
56604;BME280;42486;47.478;19.036;2022-12-18T01:51:40;101770.66;;;-3.04;100.00
56604;BME280;42486;47.478;19.036;2022-12-18T01:54:47;101771.53;;;-3.05;100.00
56604;BME280;42486;47.478;19.036;2022-12-18T01:57:55;101778.28;;;-3.15;100.00
56604;BME280;42486;47.478;19.036;2022-12-18T02:01:00;101785.94;;;-3.18;100.00
56604;BME280;42486;47.478;19.036;2022-12-18T02:04:25;101787.66;;;-3.14;100.00
56604;BME280;42486;47.478;19.036;2022-12-18T02:07:43;101794.41;;;-3.26;100.00
56604;BME280;42486;47.478;19.036;2022-12-18T02:17:22;101791.69;;;-3.46;100.00
56604;BME280;42486;47.478;19.036;2022-12-18T02:24:11;101801.84;;;-3.56;100.00
56604;BME280;42486;47.478;19.036;2022-12-18T02:27:20;101795.87;;;-3.58;100.00
56604;BME280;42486;47.478;19.036;2022-12-18T02:30:23;101806.94;;;-3.57;100.00
56604;BME280;42486;47.478;19.036;2022-12-18T02:33:29;101814.56;;;-3.63;100.00
56604;BME280;42486;47.478;19.036;2022-12-18T02:36:39;101813.63;;;-3.70;100.00
56604;BME280;42486;47.478;19.036;2022-12-18T02:39:47;101820.37;;;-3.75;100.00
56604;BME280;42486;47.478;19.036;2022-12-18T02:42:51;101821.25;;;-3.76;100.00
56604;BME280;42486;47.478;19.036;2022-12-18T02:45:58;101826.25;;;-3.87;100.00
56604;BME280;42486;47.478;19.036;2022-12-18T02:56:05;101833.97;;;-3.79;100.00
56604;BME280;42486;47.478;19.036;2022-12-18T02:59:15;101839.16;;;-3.74;100.00
56604;BME280;42486;47.478;19.036;2022-12-18T03:02:48;101842.50;;;-3.80;100.00
56604;BME280;42486;47.478;19.036;2022-12-18T03:06:07;101846.75;;;-3.79;100.00
56604;BME280;42486;47.478;19.036;2022-12-18T03:09:24;101857.84;;;-3.77;100.00
56604;BME280;42486;47.478;19.036;2022-12-18T03:12:34;101853.53;;;-3.83;100.00
56604;BME280;42486;47.478;19.036;2022-12-18T03:15:47;101865.41;;;-3.83;100.00
56604;BME280;42486;47.478;19.036;2022-12-18T03:19:00;101860.19;;;-3.97;100.00
56604;BME280;42486;47.478;19.036;2022-12-18T03:22:08;101874.63;;;-3.97;100.00
56604;BME280;42486;47.478;19.036;2022-12-18T03:25:15;101863.63;;;-3.93;100.00
56604;BME280;42486;47.478;19.036;2022-12-18T03:28:21;101870.50;;;-3.88;100.00
56604;BME280;42486;47.478;19.036;2022-12-18T03:31:28;101874.59;;;-3.99;100.00
56604;BME280;42486;47.478;19.036;2022-12-18T03:34:36;101883.16;;;-3.99;100.00
56604;BME280;42486;47.478;19.036;2022-12-18T03:37:44;101884.00;;;-3.98;100.00
56604;BME280;42486;47.478;19.036;2022-12-18T03:40:59;101891.50;;;-4.12;100.00
56604;BME280;42486;47.478;19.036;2022-12-18T03:44:22;101898.34;;;-4.09;100.00
56604;BME280;42486;47.478;19.036;2022-12-18T03:47:45;101906.12;;;-3.99;100.00
56604;BME280;42486;47.478;19.036;2022-12-18T03:50:57;101912.22;;;-3.84;100.00
56604;BME280;42486;47.478;19.036;2022-12-18T03:54:04;101904.59;;;-3.81;100.00
56604;BME280;42486;47.478;19.036;2022-12-18T03:57:24;101904.37;;;-4.00;100.00
56604;BME280;42486;47.478;19.036;2022-12-18T04:00:33;101898.37;;;-4.06;100.00
56604;BME280;42486;47.478;19.036;2022-12-18T04:03:37;101899.25;;;-4.03;100.00
56604;BME280;42486;47.478;19.036;2022-12-18T04:06:47;101900.75;;;-4.18;100.00
56604;BME280;42486;47.478;19.036;2022-12-18T04:09:54;101913.59;;;-4.14;100.00
56604;BME280;42486;47.478;19.036;2022-12-18T04:12:59;101919.53;;;-4.13;100.00
56604;BME280;42486;47.478;19.036;2022-12-18T04:16:05;101915.37;;;-4.07;100.00
56604;BME280;42486;47.478;19.036;2022-12-18T04:19:12;101924.75;;;-4.06;100.00
56604;BME280;42486;47.478;19.036;2022-12-18T04:22:18;101922.13;;;-4.10;100.00
56604;BME280;42486;47.478;19.036;2022-12-18T04:25:24;101930.56;;;-4.17;100.00
56604;BME280;42486;47.478;19.036;2022-12-18T04:28:29;101925.28;;;-4.28;100.00
56604;BME280;42486;47.478;19.036;2022-12-18T04:31:32;101924.44;;;-4.29;100.00
56604;BME280;42486;47.478;19.036;2022-12-18T04:34:36;101924.41;;;-4.33;100.00
56604;BME280;42486;47.478;19.036;2022-12-18T04:37:43;101926.78;;;-4.46;100.00
56604;BME280;42486;47.478;19.036;2022-12-18T04:40:48;101935.06;;;-4.60;100.00
56604;BME280;42486;47.478;19.036;2022-12-18T04:43:52;101938.31;;;-4.72;100.00
56604;BME280;42486;47.478;19.036;2022-12-18T04:46:56;101938.22;;;-4.78;100.00
56604;BME280;42486;47.478;19.036;2022-12-18T04:50:02;101953.50;;;-4.78;100.00
56604;BME280;42486;47.478;19.036;2022-12-18T04:53:09;101957.03;;;-4.70;100.00
56604;BME280;42486;47.478;19.036;2022-12-18T04:56:15;101967.16;;;-4.75;100.00
56604;BME280;42486;47.478;19.036;2022-12-18T04:59:20;101964.47;;;-4.82;100.00
56604;BME280;42486;47.478;19.036;2022-12-18T05:02:25;101971.38;;;-4.77;100.00
56604;BME280;42486;47.478;19.036;2022-12-18T05:05:38;101965.44;;;-4.76;100.00
56604;BME280;42486;47.478;19.036;2022-12-18T05:08:43;101968.03;;;-4.73;100.00
56604;BME280;42486;47.478;19.036;2022-12-18T05:11:47;101980.66;;;-4.80;100.00
56604;BME280;42486;47.478;19.036;2022-12-18T05:14:51;101978.19;;;-4.76;100.00
56604;BME280;42486;47.478;19.036;2022-12-18T05:17:56;101979.00;;;-4.77;100.00
56604;BME280;42486;47.478;19.036;2022-12-18T05:21:00;101981.44;;;-4.84;100.00
56604;BME280;42486;47.478;19.036;2022-12-18T05:24:04;101981.31;;;-4.92;100.00
56604;BME280;42486;47.478;19.036;2022-12-18T05:27:08;101983.00;;;-4.93;100.00
56604;BME280;42486;47.478;19.036;2022-12-18T05:30:13;101990.81;;;-4.83;100.00
56604;BME280;42486;47.478;19.036;2022-12-18T05:33:20;101996.72;;;-4.86;100.00
56604;BME280;42486;47.478;19.036;2022-12-18T05:36:25;102000.88;;;-4.90;100.00
56604;BME280;42486;47.478;19.036;2022-12-18T05:39:28;102008.44;;;-4.97;100.00
56604;BME280;42486;47.478;19.036;2022-12-18T05:42:32;102001.59;;;-5.00;100.00
56604;BME280;42486;47.478;19.036;2022-12-18T05:45:38;102009.06;;;-5.09;100.00
56604;BME280;42486;47.478;19.036;2022-12-18T05:48:42;102020.16;;;-5.07;100.00
56604;BME280;42486;47.478;19.036;2022-12-18T05:51:47;102013.53;;;-4.97;100.00
56604;BME280;42486;47.478;19.036;2022-12-18T05:54:51;102016.03;;;-4.99;100.00
56604;BME280;42486;47.478;19.036;2022-12-18T05:57:56;102022.78;;;-5.01;100.00
56604;BME280;42486;47.478;19.036;2022-12-18T06:01:07;102029.44;;;-5.11;100.00
56604;BME280;42486;47.478;19.036;2022-12-18T06:04:10;102025.94;;;-5.14;100.00
56604;BME280;42486;47.478;19.036;2022-12-18T06:07:17;102025.00;;;-5.21;100.00
56604;BME280;42486;47.478;19.036;2022-12-18T06:10:21;102030.84;;;-5.26;100.00
56604;BME280;42486;47.478;19.036;2022-12-18T06:13:25;102034.16;;;-5.31;100.00
56604;BME280;42486;47.478;19.036;2022-12-18T06:16:30;102031.50;;;-5.35;100.00
56604;BME280;42486;47.478;19.036;2022-12-18T06:19:33;102034.16;;;-5.31;100.00
56604;BME280;42486;47.478;19.036;2022-12-18T06:22:36;102040.94;;;-5.31;100.00
56604;BME280;42486;47.478;19.036;2022-12-18T06:25:41;102042.59;;;-5.33;100.00
56604;BME280;42486;47.478;19.036;2022-12-18T06:28:46;102046.87;;;-5.31;100.00
56604;BME280;42486;47.478;19.036;2022-12-18T06:31:49;102052.78;;;-5.33;100.00
56604;BME280;42486;47.478;19.036;2022-12-18T06:34:53;102068.84;;;-5.36;100.00
56604;BME280;42486;47.478;19.036;2022-12-18T06:38:01;102066.34;;;-5.34;100.00
56604;BME280;42486;47.478;19.036;2022-12-18T06:41:10;102069.00;;;-5.28;100.00
56604;BME280;42486;47.478;19.036;2022-12-18T06:44:15;102072.56;;;-5.20;100.00
56604;BME280;42486;47.478;19.036;2022-12-18T06:47:20;102082.94;;;-5.09;100.00
56604;BME280;42486;47.478;19.036;2022-12-18T06:50:24;102092.25;;;-5.13;100.00
56604;BME280;42486;47.478;19.036;2022-12-18T06:53:27;102090.50;;;-5.15;100.00
56604;BME280;42486;47.478;19.036;2022-12-18T06:56:32;102084.81;;;-5.00;100.00
56604;BME280;42486;47.478;19.036;2022-12-18T06:59:35;102090.78;;;-5.00;100.00
56604;BME280;42486;47.478;19.036;2022-12-18T07:02:40;102107.66;;;-5.05;100.00
56604;BME280;42486;47.478;19.036;2022-12-18T07:05:44;102117.06;;;-5.02;100.00
56604;BME280;42486;47.478;19.036;2022-12-18T07:08:48;102112.72;;;-5.06;100.00
56604;BME280;42486;47.478;19.036;2022-12-18T07:11:52;102116.97;;;-5.05;100.00
56604;BME280;42486;47.478;19.036;2022-12-18T07:14:55;102116.47;;;-4.89;100.00
56604;BME280;42486;47.478;19.036;2022-12-18T07:17:59;102130.16;;;-4.84;100.00
56604;BME280;42486;47.478;19.036;2022-12-18T07:21:06;102130.34;;;-4.72;100.00
56604;BME280;42486;47.478;19.036;2022-12-18T07:24:09;102145.13;;;-4.54;100.00
56604;BME280;42486;47.478;19.036;2022-12-18T07:27:14;102138.44;;;-4.49;100.00
56604;BME280;42486;47.478;19.036;2022-12-18T07:30:17;102150.16;;;-4.58;100.00
56604;BME280;42486;47.478;19.036;2022-12-18T07:33:21;102147.66;;;-4.55;100.00
56604;BME280;42486;47.478;19.036;2022-12-18T07:36:25;102168.50;;;-4.29;100.00
56604;BME280;42486;47.478;19.036;2022-12-18T07:39:29;102164.53;;;-4.13;100.00
56604;BME280;42486;47.478;19.036;2022-12-18T07:42:33;102170.56;;;-4.08;100.00
56604;BME280;42486;47.478;19.036;2022-12-18T07:45:38;102171.50;;;-4.02;100.00
56604;BME280;42486;47.478;19.036;2022-12-18T07:48:43;102174.25;;;-3.89;100.00
56604;BME280;42486;47.478;19.036;2022-12-18T07:51:53;102183.19;;;-3.61;100.00
56604;BME280;42486;47.478;19.036;2022-12-18T07:54:58;102182.56;;;-3.45;100.00
56604;BME280;42486;47.478;19.036;2022-12-18T07:58:02;102191.28;;;-3.32;100.00
56604;BME280;42486;47.478;19.036;2022-12-18T08:01:10;102197.47;;;-3.13;100.00
56604;BME280;42486;47.478;19.036;2022-12-18T08:04:16;102204.47;;;-2.98;100.00
56604;BME280;42486;47.478;19.036;2022-12-18T08:07:20;102200.38;;;-2.87;100.00
56604;BME280;42486;47.478;19.036;2022-12-18T08:10:23;102213.34;;;-2.67;100.00
56604;BME280;42486;47.478;19.036;2022-12-18T08:13:27;102219.53;;;-2.50;100.00
56604;BME280;42486;47.478;19.036;2022-12-18T08:16:32;102213.69;;;-2.35;100.00
56604;BME280;42486;47.478;19.036;2022-12-18T08:19:36;102222.22;;;-2.34;100.00
56604;BME280;42486;47.478;19.036;2022-12-18T08:22:41;102218.94;;;-2.23;100.00
56604;BME280;42486;47.478;19.036;2022-12-18T08:25:45;102218.12;;;-2.18;100.00
56604;BME280;42486;47.478;19.036;2022-12-18T08:28:51;102218.94;;;-2.23;100.00
56604;BME280;42486;47.478;19.036;2022-12-18T08:31:54;102223.31;;;-2.12;100.00
56604;BME280;42486;47.478;19.036;2022-12-18T08:34:59;102227.78;;;-1.87;100.00
56604;BME280;42486;47.478;19.036;2022-12-18T08:38:03;102231.41;;;-1.60;100.00
56604;BME280;42486;47.478;19.036;2022-12-18T08:41:09;102234.88;;;-1.53;100.00
56604;BME280;42486;47.478;19.036;2022-12-18T08:44:13;102232.38;;;-1.46;100.00
56604;BME280;42486;47.478;19.036;2022-12-18T08:47:35;102233.31;;;-1.31;100.00
56604;BME280;42486;47.478;19.036;2022-12-18T08:50:38;102233.31;;;-1.30;100.00
56604;BME280;42486;47.478;19.036;2022-12-18T08:53:43;102235.00;;;-1.32;100.00
56604;BME280;42486;47.478;19.036;2022-12-18T08:56:47;102243.66;;;-1.13;100.00
56604;BME280;42486;47.478;19.036;2022-12-18T08:59:53;102248.84;;;-0.99;100.00
56604;BME280;42486;47.478;19.036;2022-12-18T09:02:56;102249.69;;;-1.02;99.34
56604;BME280;42486;47.478;19.036;2022-12-18T09:06:00;102259.03;;;-1.13;99.09
56604;BME280;42486;47.478;19.036;2022-12-18T09:09:05;102260.87;;;-0.95;100.00
56604;BME280;42486;47.478;19.036;2022-12-18T09:12:10;102265.19;;;-0.80;99.43
56604;BME280;42486;47.478;19.036;2022-12-18T09:15:15;102272.03;;;-0.81;97.42
56604;BME280;42486;47.478;19.036;2022-12-18T09:18:21;102268.59;;;-0.84;98.30
56604;BME280;42486;47.478;19.036;2022-12-18T09:21:29;102272.06;;;-0.75;99.11
56604;BME280;42486;47.478;19.036;2022-12-18T09:24:39;102267.00;;;-0.56;95.89
56604;BME280;42486;47.478;19.036;2022-12-18T09:27:47;102267.03;;;-0.50;95.45
56604;BME280;42486;47.478;19.036;2022-12-18T09:30:53;102263.59;;;-0.55;93.18
56604;BME280;42486;47.478;19.036;2022-12-18T09:33:58;102261.09;;;-0.34;93.22
56604;BME280;42486;47.478;19.036;2022-12-18T09:37:02;102267.97;;;-0.08;94.82
56604;BME280;42486;47.478;19.036;2022-12-18T09:40:06;102264.56;;;-0.07;90.05
56604;BME280;42486;47.478;19.036;2022-12-18T09:43:18;102263.72;;;0.00;92.60
56604;BME280;42486;47.478;19.036;2022-12-18T09:46:30;102263.72;;;0.20;92.73
56604;BME280;42486;47.478;19.036;2022-12-18T09:49:43;102259.44;;;0.19;91.83
56604;BME280;42486;47.478;19.036;2022-12-18T09:52:53;102264.59;;;0.25;91.18
56604;BME280;42486;47.478;19.036;2022-12-18T09:56:01;102272.28;;;0.39;91.08
56604;BME280;42486;47.478;19.036;2022-12-18T09:59:32;102269.72;;;0.51;90.53
56604;BME280;42486;47.478;19.036;2022-12-18T10:02:38;102276.56;;;0.64;87.32
56604;BME280;42486;47.478;19.036;2022-12-18T10:05:56;102267.13;;;0.45;86.55
56604;BME280;42486;47.478;19.036;2022-12-18T10:09:25;102264.53;;;0.63;88.98
56604;BME280;42486;47.478;19.036;2022-12-18T10:16:13;102270.53;;;0.78;86.03
56604;BME280;42486;47.478;19.036;2022-12-18T10:26:07;102260.28;;;0.56;88.15
56604;BME280;42486;47.478;19.036;2022-12-18T10:29:12;102259.44;;;0.59;85.58
56604;BME280;42486;47.478;19.036;2022-12-18T10:32:20;102260.25;;;0.75;87.79
56604;BME280;42486;47.478;19.036;2022-12-18T10:35:25;102250.00;;;0.64;84.18
56604;BME280;42486;47.478;19.036;2022-12-18T10:38:31;102251.69;;;0.65;84.16
56604;BME280;42486;47.478;19.036;2022-12-18T10:41:35;102257.69;;;0.70;83.73
56604;BME280;42486;47.478;19.036;2022-12-18T10:44:40;102249.06;;;0.90;86.22
56604;BME280;42486;47.478;19.036;2022-12-18T10:47:49;102252.50;;;0.92;84.21
56604;BME280;42486;47.478;19.036;2022-12-18T10:50:54;102255.06;;;0.92;84.01
56604;BME280;42486;47.478;19.036;2022-12-18T10:54:18;102261.03;;;1.00;83.17
56604;BME280;42486;47.478;19.036;2022-12-18T10:57:42;102256.75;;;1.02;87.36
56604;BME280;42486;47.478;19.036;2022-12-18T11:04:13;102254.09;;;1.23;79.81
56604;BME280;42486;47.478;19.036;2022-12-18T11:07:21;102252.38;;;1.28;82.55
56604;BME280;42486;47.478;19.036;2022-12-18T11:10:28;102240.25;;;1.46;83.79
56604;BME280;42486;47.478;19.036;2022-12-18T11:13:33;102233.25;;;1.65;82.40
56604;BME280;42486;47.478;19.036;2022-12-18T11:16:49;102238.41;;;1.71;80.56
56604;BME280;42486;47.478;19.036;2022-12-18T11:20:30;102237.59;;;1.61;78.41
56604;BME280;42486;47.478;19.036;2022-12-18T11:23:36;102231.53;;;1.67;77.89
56604;BME280;42486;47.478;19.036;2022-12-18T11:26:43;102228.09;;;1.69;81.59
56604;BME280;42486;47.478;19.036;2022-12-18T11:29:50;102228.97;;;1.68;76.02
56604;BME280;42486;47.478;19.036;2022-12-18T11:33:08;102238.34;;;1.82;79.58
56604;BME280;42486;47.478;19.036;2022-12-18T11:36:16;102238.19;;;1.98;76.57
56604;BME280;42486;47.478;19.036;2022-12-18T11:42:53;102230.50;;;1.95;76.18
56604;BME280;42486;47.478;19.036;2022-12-18T11:46:08;102226.03;;;2.17;73.45
56604;BME280;42486;47.478;19.036;2022-12-18T11:52:33;102226.94;;;2.12;76.10
56604;BME280;42486;47.478;19.036;2022-12-18T12:13:40;102213.22;;;2.07;71.65
56604;BME280;42486;47.478;19.036;2022-12-18T12:17:10;102210.63;;;2.08;72.90
56604;BME280;42486;47.478;19.036;2022-12-18T12:20:47;102211.50;;;2.09;70.82
56604;BME280;42486;47.478;19.036;2022-12-18T12:24:13;102209.66;;;2.22;70.80
56604;BME280;42486;47.478;19.036;2022-12-18T12:34:05;102210.69;;;2.01;68.53
56604;BME280;42486;47.478;19.036;2022-12-18T12:37:29;102211.50;;;2.04;70.38
56604;BME280;42486;47.478;19.036;2022-12-18T12:40:51;102212.28;;;2.15;71.04
56604;BME280;42486;47.478;19.036;2022-12-18T12:44:07;102215.66;;;2.20;73.33
56604;BME280;42486;47.478;19.036;2022-12-18T12:47:23;102213.97;;;2.18;73.20
56604;BME280;42486;47.478;19.036;2022-12-18T12:50:31;102222.56;;;2.20;71.61
56604;BME280;42486;47.478;19.036;2022-12-18T12:53:38;102227.75;;;2.18;73.37
56604;BME280;42486;47.478;19.036;2022-12-18T12:57:14;102228.59;;;2.17;70.98
56604;BME280;42486;47.478;19.036;2022-12-18T13:00:20;102247.56;;;2.12;71.30
56604;BME280;42486;47.478;19.036;2022-12-18T13:07:10;102244.97;;;2.12;75.38
56604;BME280;42486;47.478;19.036;2022-12-18T13:13:21;102252.72;;;2.12;74.25
56604;BME280;42486;47.478;19.036;2022-12-18T13:16:27;102251.03;;;2.05;75.41
56604;BME280;42486;47.478;19.036;2022-12-18T13:19:33;102257.91;;;2.06;75.53
56604;BME280;42486;47.478;19.036;2022-12-18T13:22:44;102256.22;;;2.02;75.21
56604;BME280;42486;47.478;19.036;2022-12-18T13:32:45;102266.69;;;1.82;75.84
56604;BME280;42486;47.478;19.036;2022-12-18T13:36:12;102258.94;;;1.86;77.80
56604;BME280;42486;47.478;19.036;2022-12-18T13:46:19;102269.22;;;1.85;78.07
56604;BME280;42486;47.478;19.036;2022-12-18T13:49:39;102273.59;;;1.72;79.53
56604;BME280;42486;47.478;19.036;2022-12-18T13:52:44;102272.72;;;1.74;78.28
56604;BME280;42486;47.478;19.036;2022-12-18T13:55:50;102282.22;;;1.65;78.39
56604;BME280;42486;47.478;19.036;2022-12-18T13:59:05;102284.88;;;1.51;77.50
56604;BME280;42486;47.478;19.036;2022-12-18T14:02:16;102290.06;;;1.45;77.58
56604;BME280;42486;47.478;19.036;2022-12-18T14:05:28;102282.38;;;1.39;79.15
56604;BME280;42486;47.478;19.036;2022-12-18T14:08:37;102285.84;;;1.28;81.49
56604;BME280;42486;47.478;19.036;2022-12-18T14:11:49;102292.69;;;1.29;81.35
56604;BME280;42486;47.478;19.036;2022-12-18T14:14:54;102288.41;;;1.28;81.00
56604;BME280;42486;47.478;19.036;2022-12-18T14:21:06;102291.03;;;1.18;81.32
56604;BME280;42486;47.478;19.036;2022-12-18T14:27:25;102289.38;;;0.89;82.09
56604;BME280;42486;47.478;19.036;2022-12-18T14:30:32;102297.09;;;0.87;81.68
56604;BME280;42486;47.478;19.036;2022-12-18T14:33:38;102297.09;;;0.69;82.25
56604;BME280;42486;47.478;19.036;2022-12-18T14:36:52;102300.56;;;0.53;84.28
56604;BME280;42486;47.478;19.036;2022-12-18T14:40:01;102298.84;;;0.36;85.70
56604;BME280;42486;47.478;19.036;2022-12-18T14:43:13;102299.69;;;0.18;84.85
56604;BME280;42486;47.478;19.036;2022-12-18T14:49:41;102319.38;;;0.03;87.00
56604;BME280;42486;47.478;19.036;2022-12-18T14:52:46;102320.22;;;-0.09;87.59
56604;BME280;42486;47.478;19.036;2022-12-18T14:55:50;102319.34;;;-0.16;89.69
56604;BME280;42486;47.478;19.036;2022-12-18T15:02:24;102333.81;;;-0.35;93.18
56604;BME280;42486;47.478;19.036;2022-12-18T15:05:31;102325.22;;;-0.52;94.46
56604;BME280;42486;47.478;19.036;2022-12-18T15:08:36;102330.28;;;-0.63;96.39
56604;BME280;42486;47.478;19.036;2022-12-18T15:14:50;102347.41;;;-0.63;97.14
56604;BME280;42486;47.478;19.036;2022-12-18T15:18:01;102343.88;;;-0.81;99.19
56604;BME280;42486;47.478;19.036;2022-12-18T15:21:09;102346.38;;;-0.92;99.65
56604;BME280;42486;47.478;19.036;2022-12-18T15:24:23;102353.06;;;-1.15;100.00
56604;BME280;42486;47.478;19.036;2022-12-18T15:27:35;102351.31;;;-1.21;100.00
56604;BME280;42486;47.478;19.036;2022-12-18T15:31:17;102357.22;;;-1.28;100.00
56604;BME280;42486;47.478;19.036;2022-12-18T15:34:27;102361.44;;;-1.41;100.00
56604;BME280;42486;47.478;19.036;2022-12-18T15:37:31;102370.81;;;-1.43;100.00
56604;BME280;42486;47.478;19.036;2022-12-18T15:40:34;102369.06;;;-1.45;100.00
56604;BME280;42486;47.478;19.036;2022-12-18T15:43:38;102371.44;;;-1.65;100.00
56604;BME280;42486;47.478;19.036;2022-12-18T15:46:42;102381.63;;;-1.71;100.00
56604;BME280;42486;47.478;19.036;2022-12-18T15:49:47;102379.84;;;-1.79;100.00
56604;BME280;42486;47.478;19.036;2022-12-18T15:52:52;102390.06;;;-1.82;100.00
56604;BME280;42486;47.478;19.036;2022-12-18T15:55:58;102390.81;;;-1.92;100.00
56604;BME280;42486;47.478;19.036;2022-12-18T15:59:22;102394.09;;;-2.04;100.00
56604;BME280;42486;47.478;19.036;2022-12-18T16:02:26;102407.81;;;-1.98;100.00
56604;BME280;42486;47.478;19.036;2022-12-18T16:05:31;102397.44;;;-2.08;100.00
56604;BME280;42486;47.478;19.036;2022-12-18T16:08:36;102402.53;;;-2.12;100.00
56604;BME280;42486;47.478;19.036;2022-12-18T16:11:46;102405.09;;;-2.12;100.00
56604;BME280;42486;47.478;19.036;2022-12-18T16:14:52;102411.09;;;-2.09;100.00
56604;BME280;42486;47.478;19.036;2022-12-18T16:17:57;102407.78;;;-2.02;100.00
56604;BME280;42486;47.478;19.036;2022-12-18T16:21:03;102406.00;;;-2.06;100.00
56604;BME280;42486;47.478;19.036;2022-12-18T16:24:22;102417.09;;;-2.05;100.00
56604;BME280;42486;47.478;19.036;2022-12-18T16:27:30;102422.06;;;-2.20;100.00
56604;BME280;42486;47.478;19.036;2022-12-18T16:30:36;102423.66;;;-2.29;100.00
56604;BME280;42486;47.478;19.036;2022-12-18T16:33:41;102426.22;;;-2.27;100.00
56604;BME280;42486;47.478;19.036;2022-12-18T16:36:46;102428.81;;;-2.26;100.00
56604;BME280;42486;47.478;19.036;2022-12-18T16:39:49;102435.78;;;-2.15;100.00
56604;BME280;42486;47.478;19.036;2022-12-18T16:42:53;102432.25;;;-2.24;100.00
56604;BME280;42486;47.478;19.036;2022-12-18T16:45:59;102433.91;;;-2.27;100.00
56604;BME280;42486;47.478;19.036;2022-12-18T16:49:05;102438.22;;;-2.25;100.00
56604;BME280;42486;47.478;19.036;2022-12-18T16:52:13;102442.34;;;-2.34;100.00
56604;BME280;42486;47.478;19.036;2022-12-18T16:55:20;102455.75;;;-2.52;100.00
56604;BME280;42486;47.478;19.036;2022-12-18T16:58:26;102449.69;;;-2.60;100.00
56604;BME280;42486;47.478;19.036;2022-12-18T17:01:30;102451.31;;;-2.64;100.00
56604;BME280;42486;47.478;19.036;2022-12-18T17:04:34;102451.31;;;-2.66;100.00
56604;BME280;42486;47.478;19.036;2022-12-18T17:07:38;102447.84;;;-2.66;100.00
56604;BME280;42486;47.478;19.036;2022-12-18T17:10:43;102435.06;;;-2.68;100.00
56604;BME280;42486;47.478;19.036;2022-12-18T17:13:49;102428.97;;;-2.76;100.00
56604;BME280;42486;47.478;19.036;2022-12-18T17:16:55;102430.69;;;-2.76;100.00
56604;BME280;42486;47.478;19.036;2022-12-18T17:20:22;102429.91;;;-2.71;100.00
56604;BME280;42486;47.478;19.036;2022-12-18T17:23:27;102432.50;;;-2.68;100.00
56604;BME280;42486;47.478;19.036;2022-12-18T17:26:36;102427.38;;;-2.68;100.00
56604;BME280;42486;47.478;19.036;2022-12-18T17:29:42;102428.19;;;-2.70;100.00
56604;BME280;42486;47.478;19.036;2022-12-18T17:32:52;102429.75;;;-2.81;100.00
56604;BME280;42486;47.478;19.036;2022-12-18T17:35:57;102425.28;;;-2.93;100.00
56604;BME280;42486;47.478;19.036;2022-12-18T17:39:02;102432.81;;;-3.02;100.00
56604;BME280;42486;47.478;19.036;2022-12-18T17:42:06;102427.63;;;-3.07;100.00